createdAt,value
2022-08-27T00:01:02.625Z,61.62
2022-08-27T00:03:40.539Z,61.37
2022-08-27T00:06:15.239Z,61.51
2022-08-27T00:08:49.663Z,61.54
2022-08-27T00:11:23.646Z,61.34
2022-08-27T00:13:56.708Z,61.84
2022-08-27T00:16:28.831Z,61.95
2022-08-27T00:19:02.081Z,62.30
2022-08-27T00:21:34.377Z,62.93
2022-08-27T00:24:07.104Z,63.01
2022-08-27T00:26:43.102Z,62.31
2022-08-27T00:29:15.347Z,63.41
2022-08-27T00:31:47.212Z,63.40
2022-08-27T00:34:26.131Z,62.97
2022-08-27T00:36:58.240Z,64.04
2022-08-27T00:39:30.330Z,64.34
2022-08-27T00:42:02.151Z,65.05
2022-08-27T00:44:34.019Z,64.78
2022-08-27T00:47:11.927Z,64.90
2022-08-27T00:49:50.323Z,65.14
2022-08-27T00:52:27.243Z,65.23
2022-08-27T00:55:03.506Z,65.44
2022-08-27T00:57:39.063Z,65.38
2022-08-27T01:00:17.020Z,65.84
2022-08-27T01:02:49.349Z,65.57
2022-08-27T01:05:27.293Z,65.34
2022-08-27T01:08:04.846Z,65.45
2022-08-27T01:10:38.577Z,65.97
2022-08-27T01:13:11.626Z,66.51
2022-08-27T01:15:44.284Z,66.77
2022-08-27T01:18:18.223Z,66.21
2022-08-27T01:20:56.716Z,66.64
2022-08-27T01:23:38.008Z,66.70
2022-08-27T01:26:14.328Z,66.32
2022-08-27T01:28:47.045Z,66.32
2022-08-27T01:31:17.285Z,66.89
2022-08-27T01:33:59.567Z,66.81
2022-08-27T01:36:32.018Z,67.27
2022-08-27T01:39:03.882Z,67.15
2022-08-27T01:41:37.756Z,67.12
2022-08-27T01:44:09.924Z,67.48
2022-08-27T01:46:41.747Z,67.14
2022-08-27T01:49:13.900Z,67.01
2022-08-27T01:51:46.217Z,67.23
2022-08-27T01:54:17.926Z,67.42
2022-08-27T01:56:49.669Z,67.67
2022-08-27T01:59:21.514Z,67.69
2022-08-27T02:01:55.459Z,67.86
2022-08-27T02:04:27.318Z,67.83
2022-08-27T02:07:00.197Z,67.77
2022-08-27T02:09:33.297Z,67.98
2022-08-27T02:12:08.267Z,67.90
2022-08-27T02:14:40.721Z,68.11
2022-08-27T02:17:13.251Z,68.02
2022-08-27T02:19:43.462Z,67.72
2022-08-27T02:22:15.421Z,68.16
2022-08-27T02:24:47.381Z,67.92
2022-08-27T02:27:19.498Z,67.41
2022-08-27T02:29:52.283Z,67.11
2022-08-27T02:32:31.502Z,66.94
2022-08-27T02:35:05.101Z,67.62
2022-08-27T02:37:35.344Z,67.36
2022-08-27T02:40:09.682Z,67.68
2022-08-27T02:42:41.482Z,68.42
2022-08-27T02:45:14.473Z,69.63
2022-08-27T02:47:46.324Z,70.09
2022-08-27T02:50:18.357Z,69.52
2022-08-27T02:52:50.686Z,69.65
2022-08-27T02:55:23.406Z,70.61
2022-08-27T02:57:55.801Z,71.30
2022-08-27T03:00:28.743Z,70.62
2022-08-27T03:03:00.588Z,69.46
2022-08-27T03:05:32.632Z,68.74
2022-08-27T03:08:05.071Z,68.62
2022-08-27T03:10:36.887Z,69.18
2022-08-27T03:13:08.707Z,69.30
2022-08-27T03:15:40.565Z,69.33
2022-08-27T03:18:21.815Z,69.77
2022-08-27T03:20:55.751Z,69.66
2022-08-27T03:23:32.967Z,70.44
2022-08-27T03:26:11.372Z,69.72
2022-08-27T03:28:43.820Z,69.58
2022-08-27T03:31:26.932Z,69.23
2022-08-27T03:34:01.784Z,69.14
2022-08-27T03:36:33.696Z,69.35
2022-08-27T03:39:05.564Z,69.29
2022-08-27T03:41:43.733Z,70.22
2022-08-27T03:44:27.139Z,70.03
2022-08-27T03:47:00.140Z,70.09
2022-08-27T03:49:32.073Z,69.66
2022-08-27T03:52:05.315Z,69.85
2022-08-27T03:54:38.318Z,69.71
2022-08-27T03:57:10.687Z,69.65
2022-08-27T03:59:42.565Z,70.19
2022-08-27T04:02:16.361Z,70.41
2022-08-27T04:04:48.288Z,69.89
2022-08-27T04:07:20.152Z,69.90
2022-08-27T04:09:52.166Z,70.21
2022-08-27T04:12:24.002Z,70.32
2022-08-27T04:14:55.805Z,70.30
2022-08-27T04:17:27.658Z,69.96
2022-08-27T04:20:08.691Z,70.10
2022-08-27T04:22:51.630Z,70.41
2022-08-27T04:25:23.432Z,69.65
2022-08-27T04:27:55.387Z,69.64
2022-08-27T04:30:27.247Z,68.94
2022-08-27T04:32:59.268Z,68.87
2022-08-27T04:35:31.266Z,68.87
2022-08-27T04:38:03.154Z,69.77
2022-08-27T04:40:54.700Z,69.05
2022-08-27T04:43:28.253Z,68.54
2022-08-27T04:46:00.187Z,68.51
2022-08-27T04:48:32.017Z,68.25
2022-08-27T04:51:03.211Z,68.18
2022-08-27T04:53:35.881Z,68.17
2022-08-27T04:56:08.545Z,68.12
2022-08-27T04:58:46.812Z,68.02
2022-08-27T05:01:21.264Z,68.48
2022-08-27T05:03:54.206Z,68.05
2022-08-27T05:06:24.603Z,68.83
2022-08-27T05:08:58.069Z,68.37
2022-08-27T05:11:32.424Z,68.02
2022-08-27T05:14:06.703Z,67.73
2022-08-27T05:16:39.310Z,67.21
2022-08-27T05:19:14.820Z,67.38
2022-08-27T05:21:49.572Z,67.05
2022-08-27T05:24:22.219Z,67.17
2022-08-27T05:26:52.501Z,67.03
2022-08-27T05:29:24.361Z,67.24
2022-08-27T05:31:56.481Z,67.16
2022-08-27T05:34:29.190Z,66.97
2022-08-27T05:37:02.400Z,67.11
2022-08-27T05:39:34.216Z,67.19
2022-08-27T05:42:07.294Z,67.01
2022-08-27T05:44:41.286Z,67.27
2022-08-27T05:47:13.735Z,67.39
2022-08-27T05:49:45.796Z,67.54
2022-08-27T05:52:17.497Z,67.07
2022-08-27T05:54:49.324Z,66.71
2022-08-27T05:57:21.302Z,67.15
2022-08-27T06:00:15.736Z,67.79
2022-08-27T06:02:47.796Z,67.42
2022-08-27T06:05:20.085Z,67.01
2022-08-27T06:07:51.949Z,67.04
2022-08-27T06:10:23.729Z,66.95
2022-08-27T06:12:57.143Z,66.86
2022-08-27T06:15:29.451Z,66.78
2022-08-27T06:18:01.707Z,66.59
2022-08-27T06:20:33.595Z,65.91
2022-08-27T06:23:05.480Z,65.48
2022-08-27T06:25:40.966Z,65.55
2022-08-27T06:28:13.595Z,65.29
2022-08-27T06:30:45.470Z,64.36
2022-08-27T06:33:17.297Z,64.32
2022-08-27T06:35:49.256Z,64.24
2022-08-27T06:38:21.145Z,64.19
2022-08-27T06:40:53.789Z,63.70
2022-08-27T06:43:25.264Z,63.43
2022-08-27T06:45:57.788Z,64.27
2022-08-27T06:48:29.586Z,64.56
2022-08-27T06:51:12.484Z,63.73
2022-08-27T06:53:44.666Z,63.53
2022-08-27T06:56:17.423Z,64.00
2022-08-27T06:58:50.009Z,63.39
2022-08-27T07:01:22.432Z,63.09
2022-08-27T07:03:57.882Z,63.26
2022-08-27T07:06:31.906Z,62.92
2022-08-27T07:09:04.637Z,62.47
2022-08-27T07:11:37.406Z,62.58
2022-08-27T07:14:08.273Z,62.66
2022-08-27T07:16:42.171Z,62.43
2022-08-27T07:19:17.312Z,62.52
2022-08-27T07:21:49.343Z,62.55
2022-08-27T07:24:21.796Z,62.77
2022-08-27T07:26:53.977Z,62.16
2022-08-27T07:29:31.717Z,62.30
2022-08-27T07:32:04.449Z,62.14
2022-08-27T07:34:36.563Z,61.76
2022-08-27T07:37:07.523Z,60.42
2022-08-27T07:39:39.478Z,60.39
2022-08-27T07:42:28.888Z,59.90
2022-08-27T07:45:00.879Z,59.31
2022-08-27T07:47:31.957Z,58.63
2022-08-27T07:50:03.871Z,58.40
2022-08-27T07:52:35.855Z,58.41
2022-08-27T07:55:09.201Z,58.67
2022-08-27T07:57:42.050Z,58.75
2022-08-27T08:00:15.388Z,58.52
2022-08-27T08:02:47.451Z,58.92
2022-08-27T08:05:20.253Z,59.42
2022-08-27T08:07:52.736Z,59.09
2022-08-27T08:10:23.411Z,59.51
2022-08-27T08:12:55.387Z,59.36
2022-08-27T08:15:27.273Z,59.74
2022-08-27T08:17:59.908Z,59.54
2022-08-27T08:20:56.572Z,58.70
2022-08-27T08:23:24.442Z,58.49
2022-08-27T08:25:58.689Z,58.82
2022-08-27T08:28:31.190Z,58.74
2022-08-27T08:31:03.285Z,56.78
2022-08-27T08:33:36.021Z,57.79
2022-08-27T08:36:12.050Z,57.65
2022-08-27T08:38:45.896Z,57.65
2022-08-27T08:41:35.192Z,57.49
2022-08-27T08:44:16.460Z,57.37
2022-08-27T08:46:56.543Z,56.73
2022-08-27T08:49:39.569Z,55.83
2022-08-27T08:52:30.459Z,55.44
2022-08-27T08:55:14.360Z,55.71
2022-08-27T08:57:49.716Z,56.21
2022-08-27T09:00:21.693Z,56.41
2022-08-27T09:02:56.504Z,55.65
2022-08-27T09:05:28.418Z,54.41
2022-08-27T09:08:32.319Z,52.80
2022-08-27T09:11:11.895Z,52.34
2022-08-27T09:13:50.633Z,52.50
2022-08-27T09:16:23.177Z,52.18
2022-08-27T09:18:54.353Z,52.25
2022-08-27T09:21:37.490Z,51.92
2022-08-27T09:24:20.053Z,51.86
2022-08-27T09:26:52.461Z,50.92
2022-08-27T09:29:27.432Z,50.09
2022-08-27T09:32:01.728Z,49.67
2022-08-27T09:34:38.897Z,48.95
2022-08-27T09:37:15.485Z,49.14
2022-08-27T09:40:01.207Z,49.15
2022-08-27T09:42:37.621Z,48.66
2022-08-27T09:45:16.106Z,47.72
2022-08-27T09:47:51.261Z,47.93
2022-08-27T09:50:26.236Z,48.22
2022-08-27T09:53:01.146Z,48.10
2022-08-27T09:55:44.828Z,48.17
2022-08-27T09:58:22.968Z,47.92
2022-08-27T10:03:51.347Z,44.53
2022-08-27T10:06:31.326Z,43.27
2022-08-27T10:09:09.341Z,44.06
2022-08-27T10:11:46.947Z,43.63
2022-08-27T10:14:24.704Z,43.52
2022-08-27T10:17:13.035Z,43.86
2022-08-27T10:19:53.688Z,43.40
2022-08-27T10:22:37.034Z,42.22
2022-08-27T10:25:23.965Z,41.78
2022-08-27T10:28:07.721Z,41.89
2022-08-27T10:30:59.945Z,42.67
2022-08-27T10:33:44.697Z,40.99
2022-08-27T10:36:33.504Z,40.98
2022-08-27T10:39:12.853Z,40.45
2022-08-27T10:41:49.756Z,39.66
2022-08-27T10:44:39.818Z,39.47
2022-08-27T10:47:29.246Z,39.27
2022-08-27T10:50:07.821Z,38.96
2022-08-27T10:52:45.708Z,38.58
2022-08-27T10:55:27.601Z,38.86
2022-08-27T10:58:30.380Z,37.92
2022-08-27T11:01:11.007Z,37.94
2022-08-27T11:03:47.697Z,37.58
2022-08-27T11:06:27.271Z,36.91
2022-08-27T11:09:07.659Z,36.88
2022-08-27T11:14:39.505Z,35.77
2022-08-27T11:17:17.828Z,35.65
2022-08-27T11:19:58.265Z,35.84
2022-08-27T11:22:35.802Z,36.14
2022-08-27T11:25:16.672Z,35.91
2022-08-27T11:27:50.322Z,35.13
2022-08-27T11:30:32.751Z,35.05
2022-08-27T11:33:13.982Z,35.16
2022-08-27T11:36:05.011Z,34.24
2022-08-27T11:38:52.259Z,33.81
2022-08-27T11:41:52.691Z,33.89
2022-08-27T11:44:27.601Z,33.56
2022-08-27T11:47:11.415Z,33.61
2022-08-27T11:49:49.099Z,33.57
2022-08-27T11:52:29.261Z,33.38
2022-08-27T11:55:25.206Z,32.91
2022-08-27T11:58:10.116Z,33.09
2022-08-27T12:00:43.695Z,33.37
2022-08-27T12:03:30.198Z,32.87
2022-08-27T12:06:18.937Z,32.38
2022-08-27T12:08:51.879Z,32.63
2022-08-27T12:11:36.048Z,32.61
2022-08-27T12:14:21.578Z,32.76
2022-08-27T12:17:02.223Z,32.71
2022-08-27T12:19:49.254Z,32.00
2022-08-27T12:22:56.405Z,32.38
2022-08-27T12:25:28.533Z,32.14
2022-08-27T12:28:03.185Z,31.98
2022-08-27T12:30:38.095Z,31.87
2022-08-27T12:33:23.027Z,32.24
2022-08-27T12:35:58.099Z,31.91
2022-08-27T12:38:48.022Z,32.08
2022-08-27T12:41:32.044Z,32.34
2022-08-27T12:44:09.031Z,31.98
2022-08-27T12:46:49.746Z,31.45
2022-08-27T12:49:39.112Z,31.43
2022-08-27T12:52:30.509Z,31.36
2022-08-27T12:55:15.250Z,31.73
2022-08-27T12:57:58.119Z,31.23
2022-08-27T13:00:39.396Z,31.36
2022-08-27T13:03:27.177Z,31.24
2022-08-27T13:06:01.023Z,31.32
2022-08-27T13:08:35.604Z,31.58
2022-08-27T13:11:21.922Z,31.41
2022-08-27T13:14:05.857Z,31.07
2022-08-27T13:16:40.249Z,31.68
2022-08-27T13:19:20.802Z,32.12
2022-08-27T13:21:54.393Z,31.46
2022-08-27T13:24:33.662Z,31.33
2022-08-27T13:27:07.519Z,30.90
2022-08-27T13:29:40.228Z,30.75
2022-08-27T13:32:15.383Z,31.31
2022-08-27T13:34:47.976Z,30.89
2022-08-27T13:37:28.695Z,30.97
2022-08-27T13:40:00.746Z,31.15
2022-08-27T13:42:32.123Z,31.06
2022-08-27T13:45:07.705Z,31.01
2022-08-27T13:47:47.526Z,30.80
2022-08-27T13:50:25.284Z,31.15
2022-08-27T13:53:23.899Z,30.71
2022-08-27T13:55:57.221Z,30.90
2022-08-27T13:58:31.700Z,30.67
2022-08-27T14:01:13.299Z,30.33
2022-08-27T14:03:56.569Z,30.56
2022-08-27T14:06:35.709Z,30.77
2022-08-27T14:09:17.373Z,31.16
2022-08-27T14:11:49.845Z,31.52
2022-08-27T14:14:21.728Z,31.81
2022-08-27T14:17:01.335Z,32.00
2022-08-27T14:19:36.454Z,31.75
2022-08-27T14:22:09.205Z,33.07
2022-08-27T14:24:41.589Z,34.38
2022-08-27T14:27:20.144Z,36.01
2022-08-27T14:29:52.234Z,35.88
2022-08-27T14:32:22.639Z,38.14
2022-08-27T14:34:54.517Z,35.96
2022-08-27T14:37:26.575Z,35.37
2022-08-27T14:39:56.856Z,35.73
2022-08-27T14:42:29.817Z,36.18
2022-08-27T14:45:01.503Z,33.47
2022-08-27T14:47:34.850Z,32.92
2022-08-27T14:50:08.115Z,34.46
2022-08-27T14:52:40.760Z,35.85
2022-08-27T14:55:14.513Z,35.17
2022-08-27T14:57:46.976Z,35.38
2022-08-27T15:00:19.788Z,36.06
2022-08-27T15:02:52.321Z,33.80
2022-08-27T15:05:25.140Z,33.36
2022-08-27T15:07:58.148Z,33.23
2022-08-27T15:10:30.482Z,32.86
2022-08-27T15:13:02.344Z,33.46
2022-08-27T15:15:34.908Z,33.85
2022-08-27T15:18:07.304Z,34.22
2022-08-27T15:20:40.558Z,34.19
2022-08-27T15:23:14.817Z,33.53
2022-08-27T15:25:47.800Z,34.40
2022-08-27T15:28:20.767Z,34.79
2022-08-27T15:30:53.301Z,35.24
2022-08-27T15:33:26.153Z,36.23
2022-08-27T15:36:03.424Z,36.59
2022-08-27T15:38:36.248Z,37.45
2022-08-27T15:41:10.691Z,37.63
2022-08-27T15:43:44.239Z,37.28
2022-08-27T15:46:17.202Z,37.95
2022-08-27T15:48:49.518Z,38.83
2022-08-27T15:51:27.530Z,39.11
2022-08-27T15:54:01.083Z,39.58
2022-08-27T15:56:34.729Z,39.94
2022-08-27T15:59:07.243Z,40.00
2022-08-27T16:01:39.788Z,40.24
2022-08-27T16:04:11.952Z,45.70
2022-08-27T16:06:44.667Z,47.75
2022-08-27T16:09:16.805Z,41.16
2022-08-27T16:11:48.799Z,41.79
2022-08-27T16:14:21.161Z,41.79
2022-08-27T16:16:52.930Z,42.34
2022-08-27T16:19:25.652Z,43.60
2022-08-27T16:21:58.146Z,44.61
2022-08-27T16:24:30.754Z,44.21
2022-08-27T16:27:02.851Z,44.21
2022-08-27T16:29:35.366Z,44.80
2022-08-27T16:32:06.211Z,45.63
2022-08-27T16:34:40.567Z,45.48
2022-08-27T16:37:12.446Z,45.83
2022-08-27T16:39:46.879Z,46.91
2022-08-27T16:42:19.399Z,48.92
2022-08-27T16:44:51.371Z,48.03
2022-08-27T16:47:23.079Z,49.40
2022-08-27T16:50:11.622Z,48.95
2022-08-27T16:52:57.638Z,49.59
2022-08-27T16:55:30.160Z,49.47
2022-08-27T16:58:02.944Z,50.11
2022-08-27T17:00:37.677Z,49.75
2022-08-27T17:03:09.987Z,52.87
2022-08-27T17:05:40.365Z,50.55
2022-08-27T17:08:13.642Z,50.34
2022-08-27T17:10:48.116Z,51.87
2022-08-27T17:13:22.969Z,52.27
2022-08-27T17:16:01.827Z,52.56
2022-08-27T17:18:35.506Z,51.80
2022-08-27T17:21:08.748Z,51.45
2022-08-27T17:23:43.388Z,51.13
2022-08-27T17:26:17.678Z,52.81
2022-08-27T17:28:50.411Z,55.58
2022-08-27T17:31:28.220Z,55.66
2022-08-27T17:34:03.987Z,56.35
2022-08-27T17:36:37.072Z,56.88
2022-08-27T17:39:09.289Z,56.15
2022-08-27T17:41:47.010Z,56.35
2022-08-27T17:44:24.314Z,55.99
2022-08-27T17:46:58.010Z,55.58
2022-08-27T17:49:31.010Z,55.85
2022-08-27T17:52:06.216Z,56.67
2022-08-27T17:54:41.809Z,57.65
2022-08-27T17:57:18.529Z,57.39
2022-08-27T17:59:51.115Z,58.38
2022-08-27T18:02:29.124Z,59.08
2022-08-27T18:05:01.997Z,58.77
2022-08-27T18:07:39.152Z,58.89
2022-08-27T18:10:14.258Z,60.66
2022-08-27T18:12:47.025Z,60.25
2022-08-27T18:15:23.833Z,59.94
2022-08-27T18:17:57.033Z,59.56
2022-08-27T18:20:30.691Z,60.07
2022-08-27T18:23:02.662Z,59.38
2022-08-27T18:25:36.747Z,59.04
2022-08-27T18:28:10.924Z,57.64
2022-08-27T18:30:45.998Z,61.23
2022-08-27T18:33:18.206Z,60.82
2022-08-27T18:35:52.061Z,60.38
2022-08-27T18:38:28.215Z,61.86
2022-08-27T18:41:00.718Z,61.70
2022-08-27T18:43:35.172Z,61.22
2022-08-27T18:46:07.543Z,62.21
2022-08-27T18:48:38.201Z,63.08
2022-08-27T18:51:13.302Z,62.86
2022-08-27T18:53:46.432Z,62.92
2022-08-27T18:56:21.091Z,62.79
2022-08-27T18:58:53.066Z,63.44
2022-08-27T19:01:27.743Z,62.31
2022-08-27T19:04:00.045Z,63.50
2022-08-27T19:06:32.072Z,63.42
2022-08-27T19:09:04.963Z,63.56
2022-08-27T19:11:36.859Z,63.03
2022-08-27T19:14:08.810Z,62.93
2022-08-27T19:16:45.643Z,63.53
2022-08-27T19:19:18.879Z,62.52
2022-08-27T19:21:51.870Z,62.67
2022-08-27T19:24:22.750Z,60.13
2022-08-27T19:26:55.622Z,60.71
2022-08-27T19:29:27.369Z,62.34
2022-08-27T19:31:59.220Z,62.24
2022-08-27T19:34:31.192Z,62.12
2022-08-27T19:37:05.713Z,61.96
2022-08-27T19:39:40.224Z,62.19
2022-08-27T19:42:12.985Z,62.54
2022-08-27T19:44:45.337Z,62.64
2022-08-27T19:47:25.195Z,63.49
2022-08-27T19:49:57.467Z,63.79
2022-08-27T19:52:27.817Z,64.27
2022-08-27T19:55:15.055Z,65.05
2022-08-27T19:57:47.482Z,64.10
2022-08-27T20:00:22.111Z,65.01
2022-08-27T20:02:54.285Z,65.53
2022-08-27T20:05:25.998Z,64.73
2022-08-27T20:07:57.738Z,65.48
2022-08-27T20:10:36.496Z,65.03
2022-08-27T20:13:11.312Z,65.36
2022-08-27T20:15:43.429Z,66.33
2022-08-27T20:18:18.665Z,65.43
2022-08-27T20:20:50.834Z,67.38
2022-08-27T20:23:23.290Z,67.15
2022-08-27T20:26:01.257Z,68.51
2022-08-27T20:28:39.226Z,67.39
2022-08-27T20:31:12.044Z,67.42
2022-08-27T20:33:44.499Z,67.44
2022-08-27T20:36:15.291Z,66.96
2022-08-27T20:38:47.570Z,67.54
2022-08-27T20:41:20.249Z,67.55
2022-08-27T20:43:52.671Z,68.50
2022-08-27T20:46:25.861Z,68.74
2022-08-27T20:48:58.472Z,69.42
2022-08-27T20:51:28.763Z,68.76
2022-08-27T20:54:01.136Z,68.71
2022-08-27T20:56:34.466Z,68.86
2022-08-27T20:59:24.524Z,70.08
2022-08-27T21:01:56.196Z,69.60
2022-08-27T21:04:28.073Z,69.76
2022-08-27T21:06:59.770Z,71.21
2022-08-27T21:09:31.785Z,70.59
2022-08-27T21:12:03.990Z,70.44
2022-08-27T21:14:35.829Z,70.93
2022-08-27T21:17:07.660Z,71.32
2022-08-27T21:19:40.293Z,71.44
2022-08-27T21:22:12.086Z,71.43
2022-08-27T21:24:43.942Z,72.10
2022-08-27T21:27:16.534Z,71.63
2022-08-27T21:29:46.674Z,72.09
2022-08-27T21:32:19.897Z,71.71
2022-08-27T21:34:51.844Z,73.01
2022-08-27T21:37:24.073Z,73.52
2022-08-27T21:39:56.271Z,73.37
2022-08-27T21:42:28.296Z,73.77
2022-08-27T21:45:00.464Z,74.40
2022-08-27T21:47:32.844Z,74.29
2022-08-27T21:50:05.858Z,75.04
2022-08-27T21:52:36.021Z,75.01
2022-08-27T21:55:09.569Z,75.55
2022-08-27T21:57:41.309Z,74.65
2022-08-27T22:00:37.377Z,75.09
2022-08-27T22:03:11.623Z,75.49
2022-08-27T22:05:45.463Z,75.48
2022-08-27T22:08:19.263Z,75.90
2022-08-27T22:10:53.896Z,76.99
2022-08-27T22:13:27.257Z,77.33
2022-08-27T22:15:59.986Z,77.18
2022-08-27T22:18:30.527Z,78.03
2022-08-27T22:21:03.909Z,78.25
2022-08-27T22:23:34.218Z,77.88
2022-08-27T22:26:06.037Z,78.14
2022-08-27T22:28:37.757Z,78.47
2022-08-27T22:31:13.260Z,78.38
2022-08-27T22:33:45.155Z,79.03
2022-08-27T22:36:17.030Z,79.42
2022-08-27T22:38:49.000Z,80.08
2022-08-27T22:41:19.731Z,80.48
2022-08-27T22:43:56.718Z,80.64
2022-08-27T22:46:29.998Z,80.35
2022-08-27T22:49:01.747Z,80.64
2022-08-27T22:51:33.444Z,80.86
2022-08-27T22:54:05.291Z,81.88
2022-08-27T22:56:37.286Z,82.00
2022-08-27T22:59:09.169Z,81.25
2022-08-27T23:01:40.974Z,80.70
2022-08-27T23:04:12.939Z,80.83
2022-08-27T23:06:44.826Z,81.17
2022-08-27T23:09:16.601Z,81.58
2022-08-27T23:11:48.876Z,81.63
2022-08-27T23:14:20.766Z,82.32
2022-08-27T23:16:52.581Z,82.37
2022-08-27T23:19:24.341Z,82.66
2022-08-27T23:21:56.160Z,83.54
2022-08-27T23:24:28.154Z,83.14
2022-08-27T23:27:16.771Z,83.48
2022-08-27T23:29:48.996Z,83.50
2022-08-27T23:32:20.739Z,83.34
2022-08-27T23:34:52.500Z,84.11
2022-08-27T23:37:25.146Z,84.69
2022-08-27T23:39:55.325Z,85.09
2022-08-27T23:42:27.717Z,85.04
2022-08-27T23:44:59.368Z,85.86
2022-08-27T23:47:31.164Z,86.27
2022-08-27T23:50:03.194Z,86.94
2022-08-27T23:52:35.789Z,86.80
2022-08-27T23:55:10.853Z,86.77
2022-08-27T23:57:42.573Z,87.13
